Time;durP1;ratioP1;P1;durP2;ratioP2;P2;SDS_P1;SDS_P2;PMS_P1;PMS_P2;Temp;Humidity;BMP_temperature;BMP_pressure;BME280_temperature;BME280_humidity;BME280_pressure;Samples;Min_cycle;Max_cycle;Signal;HPM_P1;HPM_P2
2023/02/12 00:01:17;;;;;;;27.05;21.00;;;;;;;7.06;83.95;100087.13;4173983;28;20252;-84
2023/02/12 00:03:20;;;;;;;25.15;19.95;;;;;;;7.04;84.03;100094.09;4154498;28;20442;-84
2023/02/12 00:05:23;;;;;;;28.40;20.75;;;;;;;7.04;84.22;100088.06;4154487;28;20297;-83
2023/02/12 00:07:29;;;;;;;26.60;20.20;;;;;;;7.04;84.20;100095.84;4174589;28;20694;-84
2023/02/12 00:09:33;;;;;;;26.55;19.50;;;;;;;7.04;83.92;100091.50;4174131;28;20271;-83
2023/02/12 00:11:36;;;;;;;27.02;19.58;;;;;;;7.05;84.37;100090.63;4156198;28;20292;-83
2023/02/12 00:13:40;;;;;;;27.73;19.92;;;;;;;7.04;84.33;100093.25;4157776;28;20324;-83
2023/02/12 00:15:43;;;;;;;32.97;21.67;;;;;;;7.03;84.07;100097.56;4151783;28;20222;-84
2023/02/12 00:17:47;;;;;;;29.30;21.60;;;;;;;7.05;84.30;100094.94;4146870;28;20211;-84
2023/02/12 00:19:50;;;;;;;27.02;20.25;;;;;;;7.05;84.57;100088.03;4143906;28;20225;-84
2023/02/12 00:21:53;;;;;;;25.70;19.20;;;;;;;7.03;84.00;100086.34;4144661;28;20306;-85
2023/02/12 00:23:56;;;;;;;26.33;19.75;;;;;;;7.01;84.59;100082.09;4149674;28;20222;-84
2023/02/12 00:25:59;;;;;;;27.77;19.10;;;;;;;7.02;84.94;100088.97;4156688;28;20209;-85
2023/02/12 00:28:03;;;;;;;26.30;19.52;;;;;;;7.00;85.11;100085.56;4145720;28;20602;-85
2023/02/12 00:30:08;;;;;;;31.15;21.05;;;;;;;7.02;84.04;100095.00;4169309;28;20208;-84
2023/02/12 00:32:13;;;;;;;32.72;21.48;;;;;;;7.02;83.97;100097.59;4169448;28;20202;-84
2023/02/12 00:34:16;;;;;;;28.23;21.63;;;;;;;7.00;83.96;100090.75;4171476;28;20222;-84
2023/02/12 00:36:21;;;;;;;25.77;18.42;;;;;;;6.97;84.45;100090.84;4143608;28;20620;-84
2023/02/12 00:38:26;;;;;;;25.90;19.17;;;;;;;6.97;84.51;100090.84;4144091;28;20310;-85
2023/02/12 00:40:29;;;;;;;20.92;17.00;;;;;;;6.95;84.65;100090.88;4153304;28;20313;-84
2023/02/12 00:42:32;;;;;;;21.75;17.35;;;;;;;6.93;84.29;100089.19;4172225;28;20210;-84
2023/02/12 00:44:36;;;;;;;22.42;17.30;;;;;;;6.93;85.12;100099.56;4165657;28;20658;-85
2023/02/12 00:46:40;;;;;;;26.17;17.92;;;;;;;6.93;84.70;100108.22;4134720;28;20203;-85
2023/02/12 00:48:44;;;;;;;22.48;17.15;;;;;;;6.94;83.98;100104.72;4167841;28;20237;-85
2023/02/12 00:50:48;;;;;;;25.23;20.00;;;;;;;6.94;84.73;100103.88;4171419;28;20302;-84
2023/02/12 00:52:51;;;;;;;30.52;19.65;;;;;;;6.94;84.77;100101.28;4158083;28;20207;-84
2023/02/12 00:54:54;;;;;;;24.67;17.92;;;;;;;6.93;84.49;100091.78;4141540;28;20210;-85
2023/02/12 00:56:57;;;;;;;21.85;17.35;;;;;;;6.92;84.55;100092.69;4155598;28;20207;-84
2023/02/12 00:59:04;;;;;;;23.80;16.65;;;;;;;6.91;83.99;100091.81;4154888;28;20244;-84
2023/02/12 01:01:07;;;;;;;23.08;17.52;;;;;;;6.92;85.44;100100.47;4173917;28;20248;-84
2023/02/12 01:03:12;;;;;;;24.63;17.10;;;;;;;6.92;84.35;100100.47;4160376;28;20220;-84
2023/02/12 01:05:15;;;;;;;21.17;16.75;;;;;;;6.91;84.68;100099.59;4171583;28;20203;-84
2023/02/12 01:07:19;;;;;;;23.35;16.77;;;;;;;6.90;85.14;100102.22;4139017;28;20286;-84
2023/02/12 01:09:22;;;;;;;27.25;17.65;;;;;;;6.90;84.34;100099.63;4152359;28;20373;-84
2023/02/12 01:11:25;;;;;;;20.80;16.15;;;;;;;6.90;85.23;100099.63;4152284;28;20804;-85
2023/02/12 01:13:29;;;;;;;21.15;16.00;;;;;;;6.92;84.90;100097.88;4156095;28;20862;-84
2023/02/12 01:15:32;;;;;;;25.52;17.80;;;;;;;6.91;85.05;100096.16;4149826;28;20603;-84
2023/02/12 01:17:35;;;;;;;23.23;18.70;;;;;;;6.91;84.58;100096.16;4136357;28;20204;-84
2023/02/12 01:19:40;;;;;;;20.13;17.25;;;;;;;6.89;85.02;100090.16;4140090;28;20360;-84
2023/02/12 01:21:43;;;;;;;25.75;17.02;;;;;;;6.89;84.54;100101.38;4175439;28;20200;-84
2023/02/12 01:23:46;;;;;;;21.38;16.85;;;;;;;6.89;84.77;100096.19;4172097;28;20199;-84
2023/02/12 01:25:50;;;;;;;22.33;16.75;;;;;;;6.86;85.40;100088.47;4155325;28;20202;-84
2023/02/12 01:27:53;;;;;;;19.83;15.88;;;;;;;6.85;85.09;100098.88;4153160;28;20217;-84
2023/02/12 01:29:56;;;;;;;21.48;16.77;;;;;;;6.86;85.14;100098.00;4148692;28;20213;-85
2023/02/12 01:31:59;;;;;;;21.88;17.60;;;;;;;6.87;85.25;100097.09;4146372;28;20199;-84
2023/02/12 01:34:03;;;;;;;22.05;16.77;;;;;;;6.85;84.67;100094.53;4156803;28;20762;-84
2023/02/12 01:36:11;;;;;;;22.23;16.17;;;;;;;6.86;84.83;100098.00;4156508;28;20209;-85
2023/02/12 01:38:14;;;;;;;21.95;17.25;;;;;;;6.87;85.61;100097.97;4157519;28;20208;-85
2023/02/12 01:40:18;;;;;;;21.83;16.73;;;;;;;6.87;85.50;100099.69;4150908;28;20209;-84
2023/02/12 01:42:21;;;;;;;25.55;18.45;;;;;;;6.85;85.73;100086.75;4145110;28;20275;-85
2023/02/12 01:44:28;;;;;;;25.30;18.38;;;;;;;6.87;85.81;100094.50;4152419;28;20225;-85
2023/02/12 01:46:31;;;;;;;23.65;18.40;;;;;;;6.87;85.57;100085.00;4139985;28;20207;-85
2023/02/12 01:48:37;;;;;;;22.83;17.67;;;;;;;6.87;84.96;100091.91;4139019;28;20765;-85
2023/02/12 01:50:42;;;;;;;30.48;18.77;;;;;;;6.84;85.13;100094.56;4172197;28;20301;-85
2023/02/12 01:52:50;;;;;;;24.25;18.20;;;;;;;6.87;85.35;100099.69;4138059;28;20204;-84
2023/02/12 01:54:55;;;;;;;20.13;16.05;;;;;;;6.88;85.42;100098.81;4138352;28;20287;-84
2023/02/12 01:57:00;;;;;;;24.00;17.55;;;;;;;6.87;85.21;100104.88;4157162;28;20696;-85
2023/02/12 01:59:03;;;;;;;22.13;17.20;;;;;;;6.85;85.07;100104.91;4168839;28;20202;-84
2023/02/12 02:01:08;;;;;;;21.10;17.08;;;;;;;6.86;84.83;100106.63;4140266;28;20217;-85
2023/02/12 02:03:12;;;;;;;23.05;17.30;;;;;;;6.87;84.92;100094.50;4171032;28;20580;-85
2023/02/12 02:05:22;;;;;;;21.77;17.05;;;;;;;6.87;85.25;100095.38;4155422;28;20245;-85
2023/02/12 02:07:26;;;;;;;23.45;17.75;;;;;;;6.87;85.76;100095.38;4171616;28;20579;-85
2023/02/12 02:09:33;;;;;;;22.63;16.83;;;;;;;6.88;85.06;100089.28;4153895;28;20706;-84
2023/02/12 02:16:23;;;;;;;24.63;17.98;;;;;;;6.84;85.60;100073.81;4154777;28;20407;-85
2023/02/12 02:18:33;;;;;;;20.08;16.67;;;;;;;6.81;84.67;100073.88;4148178;28;20227;-85
2023/02/12 02:21:24;;;;;;;22.35;16.75;;;;;;;6.80;85.57;100069.63;4150187;28;20209;-85
2023/02/12 02:23:41;;;;;;;22.02;16.98;;;;;;;6.78;85.48;100066.19;4103417;28;20213;-84
2023/02/12 02:26:17;;;;;;;26.88;17.35;;;;;;;6.81;86.16;100063.50;4117829;28;20362;-84
2023/02/12 02:28:33;;;;;;;19.88;15.93;;;;;;;6.82;85.50;100070.41;4096806;28;20279;-85
2023/02/12 02:30:44;;;;;;;20.38;16.58;;;;;;;6.83;86.09;100067.78;4150400;28;20323;-84
2023/02/12 02:32:53;;;;;;;23.92;17.45;;;;;;;6.82;84.97;100073.00;4154754;28;20608;-84
2023/02/12 02:35:01;;;;;;;20.50;15.65;;;;;;;6.82;85.72;100070.41;4136046;28;20729;-85
2023/02/12 02:37:11;;;;;;;24.45;16.90;;;;;;;6.81;85.42;100063.50;4165728;28;20303;-85
2023/02/12 02:39:19;;;;;;;21.33;16.67;;;;;;;6.80;86.12;100061.84;4154285;28;20570;-85
2023/02/12 02:41:27;;;;;;;23.85;17.30;;;;;;;6.81;86.09;100066.09;4147032;28;20210;-85
2023/02/12 02:43:34;;;;;;;21.27;15.82;;;;;;;6.83;85.49;100066.94;4137753;28;20205;-85
2023/02/12 02:45:41;;;;;;;21.13;16.13;;;;;;;6.81;85.76;100064.38;4164812;28;20205;-85
2023/02/12 02:47:48;;;;;;;18.05;15.63;;;;;;;6.75;85.16;100066.25;4157231;28;20213;-85
2023/02/12 02:49:56;;;;;;;19.92;16.88;;;;;;;6.76;85.66;100065.38;4170405;28;20575;-85
2023/02/12 02:52:03;;;;;;;20.77;16.17;;;;;;;6.75;85.40;100079.19;4169747;28;20231;-85
2023/02/12 02:54:10;;;;;;;24.90;17.20;;;;;;;6.77;85.42;100074.88;4171772;28;20207;-84
2023/02/12 02:56:16;;;;;;;22.88;15.10;;;;;;;6.78;85.83;100076.53;4152712;28;20307;-84
2023/02/12 02:58:22;;;;;;;21.98;16.38;;;;;;;6.78;86.29;100072.25;4170211;28;20231;-84
2023/02/12 03:00:31;;;;;;;24.00;17.50;;;;;;;6.76;86.61;100078.31;4138436;28;20214;-84
2023/02/12 03:02:38;;;;;;;27.75;19.70;;;;;;;6.76;86.13;100081.75;4137581;28;20221;-84
2023/02/12 03:04:45;;;;;;;24.50;17.92;;;;;;;6.78;86.35;100084.31;4168818;28;20211;-85
2023/02/12 03:06:55;;;;;;;23.58;17.55;;;;;;;6.77;85.52;100074.88;4137593;28;20207;-84
2023/02/12 03:09:04;;;;;;;21.70;18.50;;;;;;;6.76;85.57;100076.56;4152427;28;20300;-84
2023/02/12 03:11:11;;;;;;;23.27;17.25;;;;;;;6.77;86.45;100082.63;4150252;28;20208;-84
2023/02/12 03:13:18;;;;;;;21.17;16.20;;;;;;;6.74;85.92;100080.94;4168974;28;20210;-84
2023/02/12 03:15:25;;;;;;;23.58;16.63;;;;;;;6.72;86.00;100082.72;4168681;28;20198;-85
2023/02/12 03:17:32;;;;;;;22.40;16.67;;;;;;;6.71;85.78;100083.59;4152393;28;20236;-84
2023/02/12 03:19:40;;;;;;;21.50;16.55;;;;;;;6.71;85.44;100082.78;4154314;28;20209;-84
2023/02/12 03:21:47;;;;;;;22.50;17.08;;;;;;;6.70;85.85;100081.88;4153441;28;20209;-85
2023/02/12 03:23:55;;;;;;;22.75;16.08;;;;;;;6.71;86.60;100082.78;4138783;28;20244;-84
2023/02/12 03:26:04;;;;;;;23.70;17.98;;;;;;;6.72;86.15;100080.16;4171387;28;20652;-85
2023/02/12 03:28:10;;;;;;;21.00;16.77;;;;;;;6.74;86.43;100080.09;4156902;28;20206;-84
2023/02/12 03:30:14;;;;;;;24.90;16.55;;;;;;;6.71;86.42;100080.19;4164667;28;20226;-84
2023/02/12 03:32:27;;;;;;;21.70;17.38;;;;;;;6.70;85.89;100081.88;4165792;28;20695;-84
2023/02/12 03:34:41;;;;;;;22.50;16.13;;;;;;;6.70;86.70;100081.06;4168384;28;20208;-85
2023/02/12 03:36:51;;;;;;;20.58;16.23;;;;;;;6.70;86.37;100081.88;4167447;28;20217;-84
2023/02/12 03:38:57;;;;;;;22.45;16.35;;;;;;;6.71;86.20;100082.78;4169963;28;20212;-84
2023/02/12 03:41:06;;;;;;;23.25;16.83;;;;;;;6.72;86.12;100089.63;4155585;28;20255;-84
2023/02/12 03:43:16;;;;;;;22.25;16.85;;;;;;;6.71;86.41;100082.78;4152754;28;20205;-84
2023/02/12 03:45:25;;;;;;;22.67;17.15;;;;;;;6.70;86.80;100089.66;4168128;28;20209;-84
2023/02/12 03:47:37;;;;;;;23.45;17.17;;;;;;;6.71;86.51;100090.53;4139635;28;20284;-84
2023/02/12 03:49:47;;;;;;;23.23;16.95;;;;;;;6.71;86.28;100093.97;4151560;28;20720;-84
2023/02/12 03:51:51;;;;;;;22.80;17.23;;;;;;;6.71;86.37;100082.78;4150784;28;20208;-84
2023/02/12 03:53:55;;;;;;;26.23;19.60;;;;;;;6.73;86.92;100087.00;4152172;28;20687;-84
2023/02/12 03:56:02;;;;;;;25.80;18.70;;;;;;;6.71;86.68;100090.53;4167878;28;20213;-85
2023/02/12 03:58:09;;;;;;;24.70;18.38;;;;;;;6.69;86.41;100089.69;4147426;28;20499;-84
2023/02/12 04:00:16;;;;;;;24.10;17.05;;;;;;;6.69;86.63;100087.09;4149887;28;20211;-84
2023/02/12 04:02:22;;;;;;;25.20;18.00;;;;;;;6.68;86.31;100088.00;4149990;28;20215;-85
2023/02/12 04:04:26;;;;;;;25.05;16.88;;;;;;;6.69;87.24;100094.88;4169093;28;20217;-84
2023/02/12 04:06:30;;;;;;;23.70;18.08;;;;;;;6.69;86.76;100090.56;4155606;28;20556;-85
2023/02/12 04:08:34;;;;;;;23.55;17.90;;;;;;;6.70;86.26;100096.59;4149958;28;20212;-84
2023/02/12 04:10:49;;;;;;;26.73;19.00;;;;;;;6.70;86.34;100099.19;4149873;28;20731;-84
2023/02/12 04:12:55;;;;;;;26.58;18.90;;;;;;;6.68;86.48;100094.03;4171005;28;20204;-84
2023/02/12 04:15:11;;;;;;;25.55;19.65;;;;;;;6.72;87.22;100105.19;4168490;28;20822;-85
2023/02/12 04:17:21;;;;;;;22.02;17.00;;;;;;;6.73;86.67;100107.75;4165228;28;20296;-84
2023/02/12 04:19:31;;;;;;;22.25;17.40;;;;;;;6.73;86.50;100101.72;4150457;28;20696;-84
2023/02/12 04:21:44;;;;;;;22.75;17.00;;;;;;;6.76;87.12;100104.25;4133366;28;20298;-84
2023/02/12 04:23:50;;;;;;;22.48;16.25;;;;;;;6.77;86.47;100104.22;4154406;28;20475;-84
2023/02/12 04:25:57;;;;;;;22.50;16.55;;;;;;;6.80;86.50;100105.91;4133293;28;20209;-84
2023/02/12 04:28:12;;;;;;;22.08;16.52;;;;;;;6.78;86.83;100115.44;4148929;28;20212;-84
2023/02/12 04:30:21;;;;;;;21.52;16.88;;;;;;;6.77;86.35;100114.59;4167390;28;20701;-85
2023/02/12 04:32:30;;;;;;;24.10;17.38;;;;;;;6.77;86.86;100113.75;4154429;28;20206;-85
2023/02/12 04:34:37;;;;;;;20.85;16.20;;;;;;;6.75;86.49;100113.78;4152577;28;20216;-85
2023/02/12 04:36:46;;;;;;;21.50;16.40;;;;;;;6.75;86.35;100118.09;4155936;28;20207;-84
2023/02/12 04:38:52;;;;;;;21.92;16.25;;;;;;;6.75;85.87;100120.69;4135371;28;20208;-85
2023/02/12 04:40:55;;;;;;;26.20;16.85;;;;;;;6.74;86.00;100117.25;4167189;28;20247;-85
2023/02/12 04:42:58;;;;;;;21.50;16.40;;;;;;;6.74;86.04;100119.00;4135227;28;20220;-85
2023/02/12 04:45:02;;;;;;;21.75;17.25;;;;;;;6.75;86.34;100120.69;4148479;28;20202;-84
2023/02/12 04:47:05;;;;;;;23.10;17.67;;;;;;;6.76;86.28;100123.25;4150290;28;20210;-84
2023/02/12 04:49:14;;;;;;;20.67;16.08;;;;;;;6.77;86.44;100118.94;4155838;28;20749;-85
2023/02/12 04:51:17;;;;;;;20.60;16.23;;;;;;;6.79;87.18;100120.59;4138147;28;20261;-84
2023/02/12 04:53:21;;;;;;;23.50;16.40;;;;;;;6.78;87.11;100115.44;4153226;28;20295;-85
2023/02/12 04:55:25;;;;;;;24.35;17.45;;;;;;;6.77;86.45;100124.97;4151773;28;20260;-84
2023/02/12 04:57:28;;;;;;;17.85;15.27;;;;;;;6.78;86.34;100131.00;4141312;28;20284;-85
2023/02/12 04:59:31;;;;;;;23.42;17.25;;;;;;;6.79;86.60;100125.78;4141499;28;20267;-85
2023/02/12 05:01:35;;;;;;;24.20;16.55;;;;;;;6.78;87.22;100126.69;4154540;28;20211;-84
2023/02/12 05:03:38;;;;;;;22.05;17.42;;;;;;;6.77;86.85;100121.53;4133088;28;20613;-85
2023/02/12 05:05:41;;;;;;;20.10;15.82;;;;;;;6.76;85.97;100119.81;4147030;28;20808;-85
2023/02/12 05:07:44;;;;;;;18.50;15.05;;;;;;;6.75;87.35;100115.50;4148974;28;20297;-84
2023/02/12 05:09:49;;;;;;;22.00;16.13;;;;;;;6.77;86.50;100111.16;4164316;28;20533;-84
2023/02/12 05:11:52;;;;;;;21.30;16.58;;;;;;;6.78;87.41;100120.63;4154103;28;20263;-85
2023/02/12 05:13:55;;;;;;;21.95;17.13;;;;;;;6.77;86.54;100105.97;4147012;28;20311;-84
2023/02/12 05:15:58;;;;;;;23.45;18.48;;;;;;;6.79;86.84;100111.97;4173726;28;20222;-84
2023/02/12 05:18:02;;;;;;;22.48;16.67;;;;;;;6.80;86.32;100108.50;4156068;28;20210;-84
2023/02/12 05:20:06;;;;;;;26.17;17.20;;;;;;;6.77;86.50;100103.38;4133285;28;20270;-84
2023/02/12 05:22:10;;;;;;;20.02;16.60;;;;;;;6.79;86.79;100106.78;4169975;28;20235;-84
2023/02/12 05:24:13;;;;;;;23.55;18.60;;;;;;;6.77;86.92;100111.16;4150031;28;20250;-85
2023/02/12 05:26:21;;;;;;;23.05;18.25;;;;;;;6.76;85.74;100112.03;4138601;28;20209;-84
2023/02/12 05:28:24;;;;;;;23.13;17.27;;;;;;;6.74;86.77;100112.06;4171646;28;20277;-85
2023/02/12 05:30:27;;;;;;;21.77;16.55;;;;;;;6.75;86.37;100105.13;4175273;28;20222;-85
2023/02/12 05:32:31;;;;;;;21.73;16.65;;;;;;;6.75;87.34;100115.50;4138038;28;20295;-85
2023/02/12 05:34:34;;;;;;;23.90;17.15;;;;;;;6.74;86.58;100109.47;4170823;28;20531;-85
2023/02/12 05:36:38;;;;;;;22.83;16.60;;;;;;;6.74;87.57;100111.22;4152724;28;20577;-84
2023/02/12 05:38:41;;;;;;;20.88;16.52;;;;;;;6.72;87.00;100108.66;4137119;28;20206;-85
2023/02/12 05:40:44;;;;;;;20.77;16.08;;;;;;;6.72;86.41;100110.38;4137043;28;20221;-85
2023/02/12 05:42:48;;;;;;;20.88;16.17;;;;;;;6.68;87.16;100114.78;4172598;28;20211;-85
2023/02/12 05:44:52;;;;;;;25.90;16.48;;;;;;;6.69;86.54;100115.63;4155269;28;20205;-85
2023/02/12 05:46:55;;;;;;;25.27;18.05;;;;;;;6.67;87.19;100117.41;4171393;28;20276;-85
2023/02/12 05:48:58;;;;;;;21.63;17.45;;;;;;;6.67;87.14;100114.81;4173782;28;20592;-85
2023/02/12 05:51:06;;;;;;;22.08;15.68;;;;;;;6.67;86.79;100117.41;4141964;28;20225;-85
2023/02/12 05:53:09;;;;;;;21.83;16.67;;;;;;;6.65;87.17;100114.84;4153579;28;20276;-85
2023/02/12 05:55:12;;;;;;;20.52;16.98;;;;;;;6.65;86.54;100116.59;4167148;28;20272;-84
2023/02/12 05:57:15;;;;;;;22.98;17.20;;;;;;;6.64;86.81;100109.69;4140798;28;20207;-84
2023/02/12 05:59:21;;;;;;;21.75;17.15;;;;;;;6.63;87.06;100116.63;4152772;28;20990;-84
2023/02/12 06:01:26;;;;;;;24.08;17.90;;;;;;;6.62;86.74;100114.91;4140231;28;20195;-85
2023/02/12 06:03:29;;;;;;;20.58;16.80;;;;;;;6.60;86.51;100116.69;4135186;28;20211;-85
2023/02/12 06:05:32;;;;;;;23.17;15.95;;;;;;;6.60;87.21;100118.44;4156193;28;20222;-84
2023/02/12 06:07:35;;;;;;;23.80;17.40;;;;;;;6.60;87.26;100123.63;4169684;28;20254;-85
2023/02/12 06:09:38;;;;;;;22.00;16.75;;;;;;;6.57;86.67;100115.91;4171802;28;20253;-84
2023/02/12 06:11:42;;;;;;;22.33;17.77;;;;;;;6.56;87.30;100121.97;4153500;28;20226;-85
2023/02/12 06:13:45;;;;;;;22.40;16.80;;;;;;;6.57;87.38;100124.53;4131316;28;20227;-84
2023/02/12 06:15:50;;;;;;;25.30;18.58;;;;;;;6.56;87.11;100123.72;4154499;28;20692;-84
2023/02/12 06:17:53;;;;;;;21.40;16.45;;;;;;;6.56;87.55;100114.19;4165433;28;20208;-84
2023/02/12 06:19:56;;;;;;;22.25;17.05;;;;;;;6.56;87.64;100122.81;4154202;28;20224;-85
2023/02/12 06:21:59;;;;;;;24.33;18.15;;;;;;;6.58;87.68;100125.38;4153647;28;20198;-84
2023/02/12 06:24:03;;;;;;;22.65;16.75;;;;;;;6.58;87.65;100117.59;4157286;28;20210;-84
2023/02/12 06:26:06;;;;;;;20.38;17.48;;;;;;;6.58;87.16;100118.47;4170730;28;20675;-85
2023/02/12 06:28:09;;;;;;;21.33;16.58;;;;;;;6.59;87.39;100121.91;4153618;28;20214;-85
2023/02/12 06:30:14;;;;;;;20.70;16.60;;;;;;;6.59;87.44;100124.50;4168015;28;20226;-85
2023/02/12 06:32:18;;;;;;;22.00;16.75;;;;;;;6.60;87.86;100128.81;4169532;28;20216;-85
2023/02/12 06:34:22;;;;;;;23.52;17.40;;;;;;;6.58;87.77;100123.66;4154598;28;20583;-84
2023/02/12 06:36:25;;;;;;;25.58;18.45;;;;;;;6.60;87.77;100131.41;4153287;28;20246;-85
2023/02/12 06:38:28;;;;;;;23.25;18.27;;;;;;;6.60;87.40;100132.25;4150598;28;20313;-85
2023/02/12 06:40:31;;;;;;;25.00;17.92;;;;;;;6.60;87.73;100131.41;4156169;28;20215;-85
2023/02/12 06:42:35;;;;;;;25.58;17.65;;;;;;;6.60;87.78;100136.59;4138735;28;20217;-84
2023/02/12 06:44:38;;;;;;;21.85;16.95;;;;;;;6.60;87.95;100131.41;4152355;28;20222;-84
2023/02/12 06:46:41;;;;;;;23.58;17.25;;;;;;;6.60;87.76;100132.25;4169353;28;20209;-84
2023/02/12 06:48:46;;;;;;;25.40;18.98;;;;;;;6.61;88.27;100143.44;4153678;28;20283;-85
2023/02/12 06:50:49;;;;;;;23.35;17.60;;;;;;;6.60;87.63;100141.75;4151321;28;20220;-84
2023/02/12 06:52:52;;;;;;;25.35;18.85;;;;;;;6.59;87.54;100147.81;4152426;28;20223;-85
2023/02/12 06:54:55;;;;;;;23.02;19.13;;;;;;;6.56;87.49;100147.88;4155199;28;20679;-85
2023/02/12 06:56:58;;;;;;;23.23;17.20;;;;;;;6.57;88.03;100147.84;4154798;28;20214;-85
2023/02/12 06:59:01;;;;;;;22.90;17.20;;;;;;;6.59;87.73;100145.22;4168090;28;20751;-85
2023/02/12 07:01:12;;;;;;;24.10;18.02;;;;;;;6.58;88.32;100154.75;4151949;28;20216;-84
2023/02/12 07:03:15;;;;;;;23.70;18.05;;;;;;;6.56;87.75;100150.47;4171531;28;20606;-84
2023/02/12 07:05:20;;;;;;;24.30;19.33;;;;;;;6.55;88.05;100140.13;4153499;28;20202;-85
2023/02/12 07:07:23;;;;;;;25.88;18.55;;;;;;;6.58;88.00;100156.47;4171011;28;20749;-84
2023/02/12 07:09:27;;;;;;;26.23;18.70;;;;;;;6.59;88.48;100153.00;4153533;28;20760;-85
2023/02/12 07:11:31;;;;;;;25.85;18.90;;;;;;;6.59;88.46;100145.22;4149887;28;20215;-84
2023/02/12 07:13:35;;;;;;;27.38;18.25;;;;;;;6.58;88.67;100154.75;4151478;28;20231;-84
2023/02/12 07:15:40;;;;;;;27.23;20.02;;;;;;;6.62;88.42;100148.59;4152785;28;20211;-84
2023/02/12 07:17:43;;;;;;;23.55;18.30;;;;;;;6.66;87.80;100149.38;4168043;28;20213;-85
2023/02/12 07:19:46;;;;;;;26.70;20.42;;;;;;;6.66;87.96;100151.97;4154401;28;20203;-85
2023/02/12 07:21:51;;;;;;;25.58;19.70;;;;;;;6.68;87.98;100147.63;4138700;28;20209;-85
2023/02/12 07:23:54;;;;;;;28.20;20.55;;;;;;;6.70;87.91;100156.22;4135672;28;20215;-84
2023/02/12 07:25:57;;;;;;;29.55;20.25;;;;;;;6.72;88.95;100162.22;4161401;28;20668;-86
2023/02/12 07:28:00;;;;;;;25.75;19.92;;;;;;;6.73;88.13;100159.59;4172104;28;20628;-85
2023/02/12 07:30:05;;;;;;;25.90;20.10;;;;;;;6.76;88.69;100164.72;4153128;28;20221;-86
2023/02/12 07:32:08;;;;;;;24.55;18.98;;;;;;;6.78;88.12;100168.16;4134196;28;20241;-85
2023/02/12 07:34:11;;;;;;;23.92;19.40;;;;;;;6.82;88.27;100166.34;4165880;28;20865;-85
2023/02/12 07:36:16;;;;;;;29.85;20.35;;;;;;;6.84;88.12;100167.16;4150805;28;20303;-84
2023/02/12 07:38:21;;;;;;;32.47;21.73;;;;;;;6.88;87.47;100161.88;4146782;28;20212;-85
2023/02/12 07:40:24;;;;;;;25.23;20.55;;;;;;;6.92;87.82;100165.28;4167562;28;20209;-85
2023/02/12 07:42:28;;;;;;;27.75;21.10;;;;;;;6.94;88.32;100168.69;4168420;28;20216;-84
2023/02/12 07:44:33;;;;;;;32.10;23.85;;;;;;;6.93;87.18;100164.38;4168710;28;20810;-85
2023/02/12 07:46:38;;;;;;;26.33;19.58;;;;;;;6.89;87.35;100173.97;4132373;28;20227;-84
2023/02/12 07:48:41;;;;;;;32.45;23.42;;;;;;;6.92;87.53;100166.13;4173191;28;20233;-84
2023/02/12 07:50:44;;;;;;;29.35;21.48;;;;;;;6.92;87.80;100168.72;4137459;28;20214;-84
2023/02/12 07:52:48;;;;;;;26.35;19.95;;;;;;;6.96;88.42;100172.97;4171100;28;20267;-85
2023/02/12 07:54:53;;;;;;;26.15;19.58;;;;;;;6.99;87.89;100174.63;4170962;28;20220;-84
2023/02/12 07:56:57;;;;;;;27.83;20.27;;;;;;;7.03;87.43;100173.69;4154254;28;20257;-84
2023/02/12 07:59:01;;;;;;;27.73;20.20;;;;;;;7.05;88.16;100165.84;4153735;28;20233;-84
2023/02/12 08:01:17;;;;;;;26.25;21.02;;;;;;;7.08;88.02;100170.09;4152980;28;20208;-84
2023/02/12 08:03:20;;;;;;;31.45;21.67;;;;;;;7.11;89.00;100170.91;4150482;28;20237;-84
2023/02/12 08:05:23;;;;;;;31.83;21.40;;;;;;;7.14;87.69;100180.34;4156108;28;20247;-84
2023/02/12 08:07:27;;;;;;;27.13;20.25;;;;;;;7.18;88.59;100175.06;4150315;28;20213;-84
2023/02/12 08:09:30;;;;;;;31.65;21.63;;;;;;;7.20;88.53;100168.13;4167343;28;20216;-84
2023/02/12 08:11:36;;;;;;;29.60;20.95;;;;;;;7.24;88.83;100182.72;4165249;28;20209;-85
2023/02/12 08:13:39;;;;;;;31.02;22.08;;;;;;;7.26;87.42;100175.78;4146599;28;20784;-85
2023/02/12 08:15:44;;;;;;;31.90;21.95;;;;;;;7.27;88.44;100180.06;4162130;28;20301;-85
2023/02/12 08:17:47;;;;;;;35.20;26.35;;;;;;;7.30;87.58;100181.75;4144591;28;20583;-85
2023/02/12 08:19:50;;;;;;;32.30;24.83;;;;;;;7.30;88.20;100185.19;4167100;28;20626;-84
2023/02/12 08:21:54;;;;;;;32.92;24.80;;;;;;;7.34;87.62;100184.22;4153823;28;20260;-85
2023/02/12 08:23:58;;;;;;;36.60;27.58;;;;;;;7.37;87.88;100175.53;4167179;28;20239;-85
2023/02/12 08:26:09;;;;;;;61.83;33.38;;;;;;;7.30;86.84;100177.38;4163341;28;20208;-85
2023/02/12 08:28:14;;;;;;;45.90;29.25;;;;;;;7.29;88.45;100180.91;4165041;28;20214;-84
2023/02/12 08:30:17;;;;;;;54.20;32.20;;;;;;;7.33;87.65;100164.34;4167463;28;20211;-84
2023/02/12 08:32:21;;;;;;;41.88;26.30;;;;;;;7.38;87.79;100170.31;4148688;28;20534;-86
2023/02/12 08:34:26;;;;;;;52.78;34.22;;;;;;;7.41;87.38;100178.00;4166955;28;20201;-84
2023/02/12 08:36:30;;;;;;;38.58;28.00;;;;;;;7.45;88.47;100174.47;4163766;28;20214;-83
2023/02/12 08:38:34;;;;;;;45.88;31.35;;;;;;;7.47;87.96;100180.47;4149684;28;20230;-85
2023/02/12 08:40:37;;;;;;;28.80;22.77;;;;;;;7.52;88.44;100176.03;4169498;28;20209;-84
2023/02/12 08:42:40;;;;;;;30.67;24.00;;;;;;;7.54;88.90;100174.25;4155986;28;20214;-83
2023/02/12 08:44:45;;;;;;;33.50;24.95;;;;;;;7.58;87.95;100175.91;4157225;28;20207;-82
2023/02/12 08:46:49;;;;;;;30.13;23.90;;;;;;;7.61;88.20;100175.81;4172053;28;20206;-83
2023/02/12 08:48:55;;;;;;;29.10;23.17;;;;;;;7.60;88.82;100179.31;4169657;28;20268;-83
2023/02/12 08:51:07;;;;;;;30.67;22.85;;;;;;;7.63;88.30;100177.47;4174792;28;20655;-83
2023/02/12 08:53:10;;;;;;;34.30;23.77;;;;;;;7.69;87.32;100179.09;4153592;28;20230;-82
2023/02/12 08:55:13;;;;;;;31.90;22.83;;;;;;;7.77;87.66;100177.16;4155754;28;20366;-84
2023/02/12 08:57:17;;;;;;;31.95;23.88;;;;;;;7.80;88.91;100182.28;4154494;28;20199;-83
2023/02/12 08:59:20;;;;;;;35.20;23.17;;;;;;;7.83;88.18;100174.41;4148759;28;21664;-82
2023/02/12 09:01:26;;;;;;;34.50;25.17;;;;;;;7.89;87.42;100177.72;4139328;28;20400;-81
2023/02/12 09:03:29;;;;;;;35.00;26.10;;;;;;;7.92;88.70;100182.00;4167241;28;20667;-81
2023/02/12 09:05:32;;;;;;;33.13;25.02;;;;;;;7.96;88.58;100188.81;4155190;28;20792;-83
2023/02/12 09:07:36;;;;;;;35.05;25.30;;;;;;;8.00;88.78;100184.34;4169554;28;20208;-82
2023/02/12 09:09:39;;;;;;;35.38;25.40;;;;;;;8.06;87.95;100180.78;4170581;28;20580;-83
2023/02/12 09:11:43;;;;;;;36.60;27.90;;;;;;;8.09;88.42;100186.72;4170836;28;20749;-83
2023/02/12 09:13:47;;;;;;;34.90;25.15;;;;;;;8.15;87.54;100183.16;4152830;28;21153;-84
2023/02/12 09:15:50;;;;;;;36.72;24.73;;;;;;;8.20;87.20;100183.91;4174285;28;20212;-83
2023/02/12 09:17:55;;;;;;;36.75;26.15;;;;;;;8.26;87.50;100184.59;4167739;28;20210;-84
2023/02/12 09:20:00;;;;;;;38.67;25.30;;;;;;;8.31;87.92;100185.31;4145066;28;20562;-84
2023/02/12 09:22:03;;;;;;;35.17;25.38;;;;;;;8.35;87.70;100179.16;4144699;28;20222;-83
2023/02/12 09:24:06;;;;;;;42.67;31.33;;;;;;;8.41;86.86;100189.41;4155075;28;20210;-82
2023/02/12 09:26:12;;;;;;;39.60;26.73;;;;;;;8.46;87.81;100179.72;4170809;28;20218;-84
2023/02/12 09:28:15;;;;;;;40.15;28.63;;;;;;;8.51;86.85;100177.88;4141379;28;20713;-83
2023/02/12 09:30:18;;;;;;;42.13;27.40;;;;;;;8.56;87.04;100179.44;4155281;28;20253;-84
2023/02/12 09:32:22;;;;;;;39.88;27.58;;;;;;;8.62;86.95;100181.88;4170853;28;20216;-83
2023/02/12 09:34:26;;;;;;;44.22;30.40;;;;;;;8.67;86.60;100182.59;4159006;28;20238;-82
2023/02/12 09:36:29;;;;;;;41.08;29.70;;;;;;;8.72;86.96;100180.72;4176668;28;20212;-83
2023/02/12 09:38:33;;;;;;;68.38;39.67;;;;;;;8.76;86.27;100186.69;4165921;28;20198;-82
2023/02/12 09:40:44;;;;;;;43.40;28.33;;;;;;;8.75;85.77;100179.78;4146542;28;20332;-82